Impacts TAF Board INFO
FOR SITUATIONAL AWARENESS. NOT TO BE USED FOR FLIGHT PLANNING PURPOSES.
IDs:

KATL - Atlanta/Hartsfield-J, GA, US

Issued at 1354 UTC 25 Feb 2018
Updated at 1534 UTC 25 Feb 2018
Potential Impact None Slight Moderate High
Time1521Z 25/16Z 25/17Z 25/18Z 25/19Z 25/20Z 25/21Z 25/22Z 25/23Z 26/00Z 26/01Z 26/02Z 26/03Z 26/04Z>>
Type OBS PRVL PRVL PRVL PRVL PRVL PRVL PRVL PRVL PRVL PRVL PRVL PRVL PRVL
VIS 2 >6 >6 >6 >6 >6 >6 >6 >6 6 6 6 6 6
CIG 45 15 15 15 15 25 25 25 25 15 15 15 15 15
Cover OVC BKN BKN BKN BKN OVC OVC OVC OVC OVC OVC OVC OVC OVC
FltCat IFR MVFR MVFR MVFR MVFR MVFR MVFR MVFR MVFR MVFR MVFR MVFR MVFR MVFR
WX -RA BR -SHRA -SHRA -SHRA -SHRA -SHRA -SHRA -SHRA -SHRA BR VCSH BR VCSH BR VCSH BR VCSH BR VCSH
WDir 340 210 210 210 210 280 280 280 280 90 90 90 90 90
WSpd 7 12 12 12 12 8 8 8 8 2 2 2 2 2
WGst -- -- -- -- -- -- -- -- -- -- -- -- -- --

Raw TAF
KATL 251354Z 2514/2618 21012KT P6SM -SHRA BKN015
  TEMPO 2514/2516 VRB15G25KT 4SM +SHRA BR BKN010
  FM252000 28008KT P6SM -SHRA OVC025
  FM260000 09002KT 6SM BR VCSH OVC015
  FM260500 03003KT 3SM -RA BR OVC009
  FM260900 13004KT 2SM -RA BR OVC006
  FM261500 34005KT 4SM -RA BR OVC015


Raw METAR
KATL 251521Z 34007KT 2SM -RA BR FEW020 BKN045 OVC070 16/16 A3015 RMK AO2 SFC VIS 3 P0005 T01610156
KATL 251452Z 32011KT 2SM -RA BR FEW006 BKN022 OVC075 17/16 A3014 RMK AO2 PK WND 32026/1416 WSHFT 1412 SFC VIS 4 RAB1359 SLP200 FROPA P0024 60024 T01670161 53030
KATL 251428Z 31014KT 2SM R09R/4000VP6000FT RA BR FEW006 BKN012 OVC025 17/17 A3014 RMK AO2 PK WND 32026/1416 WSHFT 1412 RAB1359 FROPA P0020 T01670167
KATL 251416Z 33021G26KT 1SM R09R/3500VP6000FT +RA BR FEW006 BKN012 OVC025 18/18 A3012 RMK AO2 PK WND 32026/1416 TWR VIS 2 RAB1359 PRESRR P0004 T01830178
KATL 251414Z 31019G23KT 2SM R09R/3500VP6000FT -RA BR SCT012 BKN016 OVC025 19/18 A3012 RMK AO2 RAB1359 PRESRR P0001 T01940183
KATL 251352Z 22011KT 8SM BKN017 BKN021 OVC080 20/18 A3009 RMK AO2 SLP181 CIG 014V019 SHRA VC W-N T02000178
KATL 251341Z 23011KT 10SM BKN017 BKN080 OVC100 20/18 A3008 RMK AO2 CIG 014V019 SHRA DSNT W-N T02000178
KATL 251315Z 21011G18KT 10SM BKN014 BKN100 20/18 A3006 RMK AO2 BKN014 V SCT T02000178
KATL 251252Z 23008KT 10SM BKN015 OVC100 19/18 A3007 RMK AO2 SLP174 BINOVC T01940178

METAR Board
Radar Display
Forecast Discussion

FOR SITUATIONAL AWARENESS. NOT TO BE USED FOR FLIGHT PLANNING PURPOSES.